sensor_id;sensor_type;location;lat;lon;timestamp;pressure;altitude;pressure_sealevel;temperature;humidity
57024;BME280;42916;54.346;18.562;2022-09-09T00:02:00;100196.59;;;13.69;63.61
57024;BME280;42916;54.346;18.562;2022-09-09T00:09:46;100189.11;;;13.69;63.63
57024;BME280;42916;54.346;18.562;2022-09-09T00:15:02;100185.88;;;13.71;63.86
57024;BME280;42916;54.346;18.562;2022-09-09T00:17:39;100180.08;;;13.70;63.80
57024;BME280;42916;54.346;18.562;2022-09-09T00:20:16;100182.77;;;13.70;63.83
57024;BME280;42916;54.346;18.562;2022-09-09T00:22:50;100175.95;;;13.68;63.89
57024;BME280;42916;54.346;18.562;2022-09-09T00:28:15;100174.10;;;13.65;63.94
57024;BME280;42916;54.346;18.562;2022-09-09T00:30:44;100170.92;;;13.65;64.00
57024;BME280;42916;54.346;18.562;2022-09-09T00:33:17;100170.29;;;13.63;63.89
57024;BME280;42916;54.346;18.562;2022-09-09T00:35:48;100167.00;;;13.62;63.86
57024;BME280;42916;54.346;18.562;2022-09-09T00:38:34;100167.77;;;13.62;63.98
57024;BME280;42916;54.346;18.562;2022-09-09T00:41:21;100163.63;;;13.61;64.06
57024;BME280;42916;54.346;18.562;2022-09-09T00:44:08;100163.79;;;13.60;63.96
57024;BME280;42916;54.346;18.562;2022-09-09T00:58:07;100157.23;;;13.61;63.98
57024;BME280;42916;54.346;18.562;2022-09-09T01:00:44;100159.09;;;13.63;63.99
57024;BME280;42916;54.346;18.562;2022-09-09T01:03:36;100161.46;;;13.66;63.93
57024;BME280;42916;54.346;18.562;2022-09-09T01:11:41;100157.55;;;13.71;63.82
57024;BME280;42916;54.346;18.562;2022-09-09T01:17:32;100157.88;;;13.72;63.88
57024;BME280;42916;54.346;18.562;2022-09-09T01:20:21;100161.21;;;13.72;63.78
57024;BME280;42916;54.346;18.562;2022-09-09T01:28:21;100161.16;;;13.70;63.74
57024;BME280;42916;54.346;18.562;2022-09-09T01:30:50;100161.61;;;13.70;63.62
57024;BME280;42916;54.346;18.562;2022-09-09T01:33:21;100159.00;;;13.68;63.69
57024;BME280;42916;54.346;18.562;2022-09-09T01:35:56;100157.14;;;13.67;63.73
57024;BME280;42916;54.346;18.562;2022-09-09T01:38:31;100161.08;;;13.67;63.78
57024;BME280;42916;54.346;18.562;2022-09-09T01:40:59;100157.48;;;13.65;63.91
57024;BME280;42916;54.346;18.562;2022-09-09T01:43:34;100160.92;;;13.65;63.92
57024;BME280;42916;54.346;18.562;2022-09-09T01:46:01;100160.33;;;13.64;63.95
57024;BME280;42916;54.346;18.562;2022-09-09T01:48:31;100162.02;;;13.64;63.89
57024;BME280;42916;54.346;18.562;2022-09-09T01:51:09;100158.48;;;13.62;64.05
57024;BME280;42916;54.346;18.562;2022-09-09T01:53:41;100161.65;;;13.61;64.07
57024;BME280;42916;54.346;18.562;2022-09-09T02:01:24;100159.42;;;13.61;64.06
57024;BME280;42916;54.346;18.562;2022-09-09T02:03:57;100153.17;;;13.61;64.30
57024;BME280;42916;54.346;18.562;2022-09-09T02:06:33;100152.85;;;13.62;64.26
57024;BME280;42916;54.346;18.562;2022-09-09T02:09:10;100157.11;;;13.63;64.23
57024;BME280;42916;54.346;18.562;2022-09-09T02:11:41;100151.10;;;13.63;64.23
57024;BME280;42916;54.346;18.562;2022-09-09T02:14:22;100155.69;;;13.63;64.30
57024;BME280;42916;54.346;18.562;2022-09-09T02:16:54;100153.77;;;13.64;64.27
57024;BME280;42916;54.346;18.562;2022-09-09T02:19:32;100153.27;;;13.65;64.40
57024;BME280;42916;54.346;18.562;2022-09-09T02:22:26;100153.11;;;13.66;64.35
57024;BME280;42916;54.346;18.562;2022-09-09T02:24:57;100150.77;;;13.65;64.29
57024;BME280;42916;54.346;18.562;2022-09-09T02:27:27;100148.63;;;13.65;64.18
57024;BME280;42916;54.346;18.562;2022-09-09T02:29:56;100147.97;;;13.66;64.34
57024;BME280;42916;54.346;18.562;2022-09-09T02:32:35;100147.95;;;13.66;64.33
57024;BME280;42916;54.346;18.562;2022-09-09T02:35:13;100150.05;;;13.65;64.17
57024;BME280;42916;54.346;18.562;2022-09-09T02:37:42;100156.06;;;13.66;64.14
57024;BME280;42916;54.346;18.562;2022-09-09T02:40:13;100149.55;;;13.66;64.25
57024;BME280;42916;54.346;18.562;2022-09-09T02:42:46;100150.47;;;13.66;64.21
57024;BME280;42916;54.346;18.562;2022-09-09T02:45:18;100148.84;;;13.64;64.25
57024;BME280;42916;54.346;18.562;2022-09-09T02:50:35;100145.36;;;13.62;64.48
57024;BME280;42916;54.346;18.562;2022-09-09T02:53:17;100153.73;;;13.61;64.71
57024;BME280;42916;54.346;18.562;2022-09-09T02:55:53;100149.09;;;13.62;64.78
57024;BME280;42916;54.346;18.562;2022-09-09T02:58:23;100148.42;;;13.62;65.13
57024;BME280;42916;54.346;18.562;2022-09-09T03:00:56;100152.69;;;13.61;65.64
57024;BME280;42916;54.346;18.562;2022-09-09T03:03:25;100153.75;;;13.57;66.08
57024;BME280;42916;54.346;18.562;2022-09-09T03:05:52;100152.83;;;13.53;66.26
57024;BME280;42916;54.346;18.562;2022-09-09T03:08:18;100161.29;;;13.49;66.63
57024;BME280;42916;54.346;18.562;2022-09-09T03:10:46;100163.96;;;13.46;66.78
57024;BME280;42916;54.346;18.562;2022-09-09T03:13:14;100165.23;;;13.43;66.82
57024;BME280;42916;54.346;18.562;2022-09-09T03:15:42;100174.05;;;13.40;67.24
57024;BME280;42916;54.346;18.562;2022-09-09T03:18:12;100176.41;;;13.34;67.74
57024;BME280;42916;54.346;18.562;2022-09-09T03:20:39;100177.77;;;13.27;68.33
57024;BME280;42916;54.346;18.562;2022-09-09T03:23:05;100179.95;;;13.15;69.25
57024;BME280;42916;54.346;18.562;2022-09-09T03:25:32;100181.17;;;13.06;70.17
57024;BME280;42916;54.346;18.562;2022-09-09T03:28:00;100187.48;;;12.94;71.07
57024;BME280;42916;54.346;18.562;2022-09-09T03:30:27;100186.86;;;12.80;72.36
57024;BME280;42916;54.346;18.562;2022-09-09T03:32:55;100201.87;;;12.67;73.63
57024;BME280;42916;54.346;18.562;2022-09-09T03:35:24;100200.73;;;12.49;75.77
57024;BME280;42916;54.346;18.562;2022-09-09T03:37:50;100207.45;;;12.36;76.56
57024;BME280;42916;54.346;18.562;2022-09-09T03:40:17;100210.60;;;12.26;77.75
57024;BME280;42916;54.346;18.562;2022-09-09T03:42:45;100215.83;;;12.18;78.88
57024;BME280;42916;54.346;18.562;2022-09-09T03:45:11;100212.83;;;12.11;79.79
57024;BME280;42916;54.346;18.562;2022-09-09T03:47:39;100218.52;;;12.06;80.65
57024;BME280;42916;54.346;18.562;2022-09-09T03:50:07;100220.38;;;12.00;81.85
57024;BME280;42916;54.346;18.562;2022-09-09T03:52:38;100210.20;;;11.93;82.49
57024;BME280;42916;54.346;18.562;2022-09-09T03:55:07;100211.42;;;11.87;83.03
57024;BME280;42916;54.346;18.562;2022-09-09T03:57:34;100210.23;;;11.84;83.55
57024;BME280;42916;54.346;18.562;2022-09-09T04:00:04;100210.52;;;11.81;84.73
57024;BME280;42916;54.346;18.562;2022-09-09T04:02:32;100205.36;;;11.79;85.09
57024;BME280;42916;54.346;18.562;2022-09-09T04:04:58;100209.54;;;11.76;85.54
57024;BME280;42916;54.346;18.562;2022-09-09T04:07:26;100210.66;;;11.71;86.52
57024;BME280;42916;54.346;18.562;2022-09-09T04:09:56;100205.85;;;11.68;86.95
57024;BME280;42916;54.346;18.562;2022-09-09T04:12:23;100210.27;;;11.66;87.34
57024;BME280;42916;54.346;18.562;2022-09-09T04:14:50;100210.64;;;11.65;87.54
57024;BME280;42916;54.346;18.562;2022-09-09T04:17:17;100215.14;;;11.61;87.54
57024;BME280;42916;54.346;18.562;2022-09-09T04:19:43;100216.39;;;11.57;88.66
57024;BME280;42916;54.346;18.562;2022-09-09T04:22:10;100216.21;;;11.53;89.53
57024;BME280;42916;54.346;18.562;2022-09-09T04:24:37;100214.52;;;11.52;90.47
57024;BME280;42916;54.346;18.562;2022-09-09T04:27:04;100217.48;;;11.48;90.94
57024;BME280;42916;54.346;18.562;2022-09-09T04:29:32;100212.41;;;11.44;91.27
57024;BME280;42916;54.346;18.562;2022-09-09T04:32:00;100215.35;;;11.45;91.66
57024;BME280;42916;54.346;18.562;2022-09-09T04:34:27;100215.30;;;11.44;91.80
57024;BME280;42916;54.346;18.562;2022-09-09T04:36:55;100217.41;;;11.42;92.80
57024;BME280;42916;54.346;18.562;2022-09-09T04:39:23;100217.95;;;11.39;93.81
57024;BME280;42916;54.346;18.562;2022-09-09T04:41:51;100216.42;;;11.39;93.90
57024;BME280;42916;54.346;18.562;2022-09-09T04:44:17;100213.59;;;11.38;93.97
57024;BME280;42916;54.346;18.562;2022-09-09T04:46:44;100218.97;;;11.38;94.65
57024;BME280;42916;54.346;18.562;2022-09-09T04:49:11;100215.39;;;11.40;94.98
57024;BME280;42916;54.346;18.562;2022-09-09T04:51:38;100218.11;;;11.39;95.17
57024;BME280;42916;54.346;18.562;2022-09-09T04:54:05;100221.05;;;11.38;95.66
57024;BME280;42916;54.346;18.562;2022-09-09T04:56:32;100219.86;;;11.40;95.71
57024;BME280;42916;54.346;18.562;2022-09-09T04:59:00;100221.17;;;11.41;96.04
57024;BME280;42916;54.346;18.562;2022-09-09T05:01:43;100225.63;;;11.41;96.49
57024;BME280;42916;54.346;18.562;2022-09-09T05:04:12;100225.80;;;11.40;96.67
57024;BME280;42916;54.346;18.562;2022-09-09T05:06:38;100230.59;;;11.39;97.14
57024;BME280;42916;54.346;18.562;2022-09-09T05:09:05;100231.23;;;11.41;97.53
57024;BME280;42916;54.346;18.562;2022-09-09T05:11:33;100232.01;;;11.41;97.26
57024;BME280;42916;54.346;18.562;2022-09-09T05:14:14;100236.91;;;11.41;97.54
57024;BME280;42916;54.346;18.562;2022-09-09T05:16:41;100238.45;;;11.42;97.77
57024;BME280;42916;54.346;18.562;2022-09-09T05:19:11;100238.22;;;11.44;97.97
57024;BME280;42916;54.346;18.562;2022-09-09T05:21:44;100240.54;;;11.45;97.98
57024;BME280;42916;54.346;18.562;2022-09-09T05:24:12;100239.92;;;11.45;97.87
57024;BME280;42916;54.346;18.562;2022-09-09T05:26:39;100241.77;;;11.44;98.23
57024;BME280;42916;54.346;18.562;2022-09-09T05:29:07;100241.60;;;11.44;98.41
57024;BME280;42916;54.346;18.562;2022-09-09T05:31:34;100242.55;;;11.46;98.47
57024;BME280;42916;54.346;18.562;2022-09-09T05:34:03;100238.36;;;11.47;98.46
57024;BME280;42916;54.346;18.562;2022-09-09T05:36:30;100240.30;;;11.45;98.74
57024;BME280;42916;54.346;18.562;2022-09-09T05:38:57;100238.67;;;11.46;98.93
57024;BME280;42916;54.346;18.562;2022-09-09T05:41:25;100237.11;;;11.48;99.13
57024;BME280;42916;54.346;18.562;2022-09-09T05:43:54;100238.20;;;11.49;99.25
57024;BME280;42916;54.346;18.562;2022-09-09T05:46:23;100239.94;;;11.47;99.50
57024;BME280;42916;54.346;18.562;2022-09-09T05:48:53;100241.23;;;11.45;99.23
57024;BME280;42916;54.346;18.562;2022-09-09T05:51:24;100247.16;;;11.43;99.20
57024;BME280;42916;54.346;18.562;2022-09-09T05:53:52;100250.69;;;11.40;99.20
57024;BME280;42916;54.346;18.562;2022-09-09T05:56:24;100254.42;;;11.36;99.04
57024;BME280;42916;54.346;18.562;2022-09-09T05:58:53;100253.53;;;11.33;99.20
57024;BME280;42916;54.346;18.562;2022-09-09T06:01:24;100259.18;;;11.30;99.11
57024;BME280;42916;54.346;18.562;2022-09-09T06:03:52;100253.77;;;11.28;99.38
57024;BME280;42916;54.346;18.562;2022-09-09T06:06:27;100252.08;;;11.26;99.35
57024;BME280;42916;54.346;18.562;2022-09-09T06:08:58;100252.61;;;11.25;99.42
57024;BME280;42916;54.346;18.562;2022-09-09T06:11:27;100256.48;;;11.24;99.66
57024;BME280;42916;54.346;18.562;2022-09-09T06:13:59;100255.73;;;11.25;99.64
57024;BME280;42916;54.346;18.562;2022-09-09T06:16:27;100256.87;;;11.25;99.55
57024;BME280;42916;54.346;18.562;2022-09-09T06:18:55;100263.46;;;11.24;99.70
57024;BME280;42916;54.346;18.562;2022-09-09T06:23:51;100266.36;;;11.18;99.92
57024;BME280;42916;54.346;18.562;2022-09-09T06:26:20;100267.58;;;11.15;99.99
57024;BME280;42916;54.346;18.562;2022-09-09T06:28:49;100265.84;;;11.13;99.92
57024;BME280;42916;54.346;18.562;2022-09-09T06:31:19;100269.20;;;11.13;100.00
57024;BME280;42916;54.346;18.562;2022-09-09T06:33:50;100263.54;;;11.13;100.00
57024;BME280;42916;54.346;18.562;2022-09-09T06:36:23;100269.98;;;11.15;100.00
57024;BME280;42916;54.346;18.562;2022-09-09T06:38:50;100272.04;;;11.16;100.00
57024;BME280;42916;54.346;18.562;2022-09-09T06:41:20;100271.39;;;11.15;100.00
57024;BME280;42916;54.346;18.562;2022-09-09T06:43:47;100268.68;;;11.16;100.00
57024;BME280;42916;54.346;18.562;2022-09-09T06:46:19;100269.77;;;11.16;100.00
57024;BME280;42916;54.346;18.562;2022-09-09T06:48:47;100266.33;;;11.15;100.00
57024;BME280;42916;54.346;18.562;2022-09-09T06:51:20;100273.55;;;11.13;100.00
57024;BME280;42916;54.346;18.562;2022-09-09T06:53:53;100276.49;;;11.11;100.00
57024;BME280;42916;54.346;18.562;2022-09-09T06:56:25;100280.73;;;11.09;100.00
57024;BME280;42916;54.346;18.562;2022-09-09T06:58:56;100280.39;;;11.08;100.00
57024;BME280;42916;54.346;18.562;2022-09-09T07:01:28;100283.61;;;11.08;100.00
57024;BME280;42916;54.346;18.562;2022-09-09T07:03:58;100289.25;;;11.06;99.99
57024;BME280;42916;54.346;18.562;2022-09-09T07:06:31;100287.80;;;11.03;100.00
57024;BME280;42916;54.346;18.562;2022-09-09T07:09:00;100287.70;;;11.03;100.00
57024;BME280;42916;54.346;18.562;2022-09-09T07:11:30;100284.05;;;11.03;100.00
57024;BME280;42916;54.346;18.562;2022-09-09T07:13:59;100285.05;;;11.00;100.00
57024;BME280;42916;54.346;18.562;2022-09-09T07:16:27;100288.05;;;10.98;100.00
57024;BME280;42916;54.346;18.562;2022-09-09T07:18:56;100286.95;;;10.98;100.00
57024;BME280;42916;54.346;18.562;2022-09-09T07:21:29;100285.30;;;10.97;100.00
57024;BME280;42916;54.346;18.562;2022-09-09T07:23:56;100283.98;;;10.93;100.00
57024;BME280;42916;54.346;18.562;2022-09-09T07:26:26;100284.80;;;10.95;100.00
57024;BME280;42916;54.346;18.562;2022-09-09T07:28:54;100289.48;;;10.95;100.00
57024;BME280;42916;54.346;18.562;2022-09-09T07:31:24;100287.70;;;10.95;100.00
57024;BME280;42916;54.346;18.562;2022-09-09T07:33:52;100291.52;;;10.95;100.00
57024;BME280;42916;54.346;18.562;2022-09-09T07:36:25;100290.63;;;10.95;100.00
57024;BME280;42916;54.346;18.562;2022-09-09T07:38:57;100290.63;;;10.95;100.00
57024;BME280;42916;54.346;18.562;2022-09-09T07:41:26;100291.23;;;10.95;100.00
57024;BME280;42916;54.346;18.562;2022-09-09T07:43:54;100288.72;;;10.94;100.00
57024;BME280;42916;54.346;18.562;2022-09-09T07:46:23;100292.94;;;10.97;100.00
57024;BME280;42916;54.346;18.562;2022-09-09T07:48:53;100293.81;;;10.98;100.00
57024;BME280;42916;54.346;18.562;2022-09-09T07:51:44;100293.08;;;11.01;100.00
57024;BME280;42916;54.346;18.562;2022-09-09T07:54:15;100296.23;;;11.02;100.00
57024;BME280;42916;54.346;18.562;2022-09-09T07:56:44;100296.02;;;11.03;100.00
57024;BME280;42916;54.346;18.562;2022-09-09T07:59:11;100298.59;;;11.03;100.00
57024;BME280;42916;54.346;18.562;2022-09-09T08:01:42;100294.67;;;11.03;100.00
57024;BME280;42916;54.346;18.562;2022-09-09T08:04:16;100294.01;;;11.03;100.00
57024;BME280;42916;54.346;18.562;2022-09-09T08:06:50;100299.54;;;11.06;100.00
57024;BME280;42916;54.346;18.562;2022-09-09T08:09:20;100305.66;;;11.09;100.00
57024;BME280;42916;54.346;18.562;2022-09-09T08:11:48;100303.44;;;11.09;100.00
57024;BME280;42916;54.346;18.562;2022-09-09T08:14:16;100304.69;;;11.09;100.00
57024;BME280;42916;54.346;18.562;2022-09-09T08:16:46;100308.60;;;11.10;100.00
57024;BME280;42916;54.346;18.562;2022-09-09T08:19:15;100312.98;;;11.14;100.00
57024;BME280;42916;54.346;18.562;2022-09-09T08:21:43;100313.65;;;11.16;100.00
57024;BME280;42916;54.346;18.562;2022-09-09T08:24:12;100319.47;;;11.13;100.00
57024;BME280;42916;54.346;18.562;2022-09-09T08:26:47;100315.95;;;11.10;100.00
57024;BME280;42916;54.346;18.562;2022-09-09T08:29:16;100316.64;;;11.06;100.00
57024;BME280;42916;54.346;18.562;2022-09-09T08:31:49;100318.89;;;11.08;100.00
57024;BME280;42916;54.346;18.562;2022-09-09T08:34:17;100320.28;;;11.13;100.00
57024;BME280;42916;54.346;18.562;2022-09-09T08:36:49;100324.65;;;11.15;100.00
57024;BME280;42916;54.346;18.562;2022-09-09T08:39:18;100324.92;;;11.16;100.00
57024;BME280;42916;54.346;18.562;2022-09-09T08:50:30;100324.07;;;11.17;100.00
57024;BME280;42916;54.346;18.562;2022-09-09T08:53:22;100325.72;;;11.19;100.00
57024;BME280;42916;54.346;18.562;2022-09-09T08:58:47;100327.27;;;11.22;100.00
57024;BME280;42916;54.346;18.562;2022-09-09T09:04:21;100326.41;;;11.27;100.00
57024;BME280;42916;54.346;18.562;2022-09-09T09:07:03;100327.25;;;11.29;100.00
57024;BME280;42916;54.346;18.562;2022-09-09T09:09:58;100325.39;;;11.30;100.00
57024;BME280;42916;54.346;18.562;2022-09-09T09:12:37;100326.83;;;11.30;100.00
57024;BME280;42916;54.346;18.562;2022-09-09T09:15:16;100327.11;;;11.31;100.00
57024;BME280;42916;54.346;18.562;2022-09-09T09:17:45;100329.53;;;11.34;100.00
57024;BME280;42916;54.346;18.562;2022-09-09T09:20:13;100326.80;;;11.36;100.00
57024;BME280;42916;54.346;18.562;2022-09-09T09:22:52;100328.91;;;11.40;100.00
57024;BME280;42916;54.346;18.562;2022-09-09T09:25:35;100328.92;;;11.44;100.00
57024;BME280;42916;54.346;18.562;2022-09-09T09:28:17;100325.14;;;11.46;100.00
57024;BME280;42916;54.346;18.562;2022-09-09T09:30:59;100326.38;;;11.52;100.00
57024;BME280;42916;54.346;18.562;2022-09-09T09:36:11;100327.20;;;11.62;100.00
57024;BME280;42916;54.346;18.562;2022-09-09T09:38:58;100329.02;;;11.67;100.00
57024;BME280;42916;54.346;18.562;2022-09-09T09:41:45;100333.38;;;11.68;100.00
57024;BME280;42916;54.346;18.562;2022-09-09T09:44:27;100334.48;;;11.71;100.00
57024;BME280;42916;54.346;18.562;2022-09-09T09:47:20;100340.33;;;11.72;100.00
57024;BME280;42916;54.346;18.562;2022-09-09T09:49:57;100340.52;;;11.67;100.00
57024;BME280;42916;54.346;18.562;2022-09-09T09:52:30;100340.23;;;11.64;100.00
57024;BME280;42916;54.346;18.562;2022-09-09T09:55:03;100344.52;;;11.62;100.00
57024;BME280;42916;54.346;18.562;2022-09-09T09:57:37;100342.84;;;11.64;100.00
57024;BME280;42916;54.346;18.562;2022-09-09T10:00:16;100341.44;;;11.66;100.00
57024;BME280;42916;54.346;18.562;2022-09-09T10:02:47;100338.54;;;11.65;100.00
57024;BME280;42916;54.346;18.562;2022-09-09T10:05:20;100335.55;;;11.69;100.00
57024;BME280;42916;54.346;18.562;2022-09-09T10:08:13;100333.16;;;11.72;100.00
57024;BME280;42916;54.346;18.562;2022-09-09T10:16:18;100329.58;;;11.82;100.00
57024;BME280;42916;54.346;18.562;2022-09-09T10:24:21;100328.54;;;11.96;100.00
57024;BME280;42916;54.346;18.562;2022-09-09T10:29:55;100335.02;;;11.99;100.00
57024;BME280;42916;54.346;18.562;2022-09-09T10:32:48;100335.64;;;12.00;100.00
57024;BME280;42916;54.346;18.562;2022-09-09T10:38:14;100340.85;;;12.09;100.00
57024;BME280;42916;54.346;18.562;2022-09-09T10:40:58;100343.10;;;12.11;100.00
57024;BME280;42916;54.346;18.562;2022-09-09T10:59:55;100335.88;;;12.42;100.00
57024;BME280;42916;54.346;18.562;2022-09-09T11:02:28;100334.70;;;12.46;100.00
57024;BME280;42916;54.346;18.562;2022-09-09T11:05:19;100333.02;;;12.50;100.00
57024;BME280;42916;54.346;18.562;2022-09-09T11:12:55;100334.66;;;12.54;100.00
57024;BME280;42916;54.346;18.562;2022-09-09T11:15:44;100336.84;;;12.57;100.00
57024;BME280;42916;54.346;18.562;2022-09-09T11:18:21;100338.28;;;12.62;100.00
57024;BME280;42916;54.346;18.562;2022-09-09T11:20:56;100342.16;;;12.61;100.00
57024;BME280;42916;54.346;18.562;2022-09-09T11:23:40;100342.41;;;12.60;100.00
57024;BME280;42916;54.346;18.562;2022-09-09T11:26:13;100346.83;;;12.58;100.00
57024;BME280;42916;54.346;18.562;2022-09-09T11:34:21;100352.73;;;12.59;100.00
57024;BME280;42916;54.346;18.562;2022-09-09T11:37:15;100354.58;;;12.59;100.00
57024;BME280;42916;54.346;18.562;2022-09-09T11:40:15;100354.42;;;12.58;100.00
57024;BME280;42916;54.346;18.562;2022-09-09T11:42:44;100360.48;;;12.54;100.00
57024;BME280;42916;54.346;18.562;2022-09-09T11:47:55;100365.38;;;12.53;100.00
57024;BME280;42916;54.346;18.562;2022-09-09T11:50:27;100362.54;;;12.51;100.00
57024;BME280;42916;54.346;18.562;2022-09-09T11:53:14;100362.74;;;12.51;100.00
57024;BME280;42916;54.346;18.562;2022-09-09T11:55:46;100360.52;;;12.53;100.00
57024;BME280;42916;54.346;18.562;2022-09-09T12:00:45;100356.98;;;12.56;100.00
57024;BME280;42916;54.346;18.562;2022-09-09T12:03:50;100361.41;;;12.55;100.00
57024;BME280;42916;54.346;18.562;2022-09-09T12:06:26;100364.73;;;12.54;100.00
57024;BME280;42916;54.346;18.562;2022-09-09T12:08:58;100367.83;;;12.53;100.00
57024;BME280;42916;54.346;18.562;2022-09-09T12:11:32;100367.01;;;12.51;100.00
57024;BME280;42916;54.346;18.562;2022-09-09T12:14:00;100365.41;;;12.49;100.00
57024;BME280;42916;54.346;18.562;2022-09-09T12:16:33;100365.10;;;12.49;100.00
57024;BME280;42916;54.346;18.562;2022-09-09T12:19:16;100364.77;;;12.48;100.00
57024;BME280;42916;54.346;18.562;2022-09-09T12:24:35;100366.66;;;12.43;100.00
57024;BME280;42916;54.346;18.562;2022-09-09T12:27:18;100371.57;;;12.42;100.00
57024;BME280;42916;54.346;18.562;2022-09-09T12:32:29;100371.00;;;12.36;100.00
57024;BME280;42916;54.346;18.562;2022-09-09T12:35:02;100366.95;;;12.35;100.00
57024;BME280;42916;54.346;18.562;2022-09-09T12:37:49;100369.15;;;12.35;100.00
57024;BME280;42916;54.346;18.562;2022-09-09T12:40:38;100368.33;;;12.33;100.00
57024;BME280;42916;54.346;18.562;2022-09-09T12:43:21;100366.90;;;12.31;100.00
57024;BME280;42916;54.346;18.562;2022-09-09T12:45:51;100362.41;;;12.30;100.00
57024;BME280;42916;54.346;18.562;2022-09-09T12:48:36;100363.24;;;12.32;100.00
57024;BME280;42916;54.346;18.562;2022-09-09T12:51:17;100366.90;;;12.33;100.00
57024;BME280;42916;54.346;18.562;2022-09-09T12:53:45;100366.52;;;12.32;100.00
57024;BME280;42916;54.346;18.562;2022-09-09T12:56:20;100363.66;;;12.29;100.00
57024;BME280;42916;54.346;18.562;2022-09-09T12:58:50;100364.42;;;12.22;100.00
57024;BME280;42916;54.346;18.562;2022-09-09T13:01:25;100363.27;;;12.22;100.00
57024;BME280;42916;54.346;18.562;2022-09-09T13:03:52;100362.57;;;12.26;100.00
57024;BME280;42916;54.346;18.562;2022-09-09T13:06:28;100367.05;;;12.31;100.00
57024;BME280;42916;54.346;18.562;2022-09-09T13:08:57;100367.36;;;12.36;100.00
57024;BME280;42916;54.346;18.562;2022-09-09T13:11:35;100360.26;;;12.37;100.00
57024;BME280;42916;54.346;18.562;2022-09-09T13:14:03;100363.80;;;12.37;100.00
57024;BME280;42916;54.346;18.562;2022-09-09T13:16:35;100361.09;;;12.39;100.00
57024;BME280;42916;54.346;18.562;2022-09-09T13:19:08;100364.20;;;12.40;100.00
57024;BME280;42916;54.346;18.562;2022-09-09T13:21:38;100359.12;;;12.39;100.00
57024;BME280;42916;54.346;18.562;2022-09-09T13:24:30;100358.36;;;12.38;100.00
57024;BME280;42916;54.346;18.562;2022-09-09T13:27:00;100359.63;;;12.41;100.00
57024;BME280;42916;54.346;18.562;2022-09-09T13:29:32;100352.80;;;12.41;100.00
57024;BME280;42916;54.346;18.562;2022-09-09T13:32:06;100353.12;;;12.40;100.00
57024;BME280;42916;54.346;18.562;2022-09-09T13:34:39;100351.81;;;12.42;100.00
57024;BME280;42916;54.346;18.562;2022-09-09T13:37:29;100350.40;;;12.43;100.00
57024;BME280;42916;54.346;18.562;2022-09-09T13:39:58;100349.59;;;12.42;100.00
57024;BME280;42916;54.346;18.562;2022-09-09T13:42:27;100348.03;;;12.38;100.00
57024;BME280;42916;54.346;18.562;2022-09-09T13:44:56;100348.09;;;12.36;100.00
57024;BME280;42916;54.346;18.562;2022-09-09T13:47:35;100345.95;;;12.33;100.00
57024;BME280;42916;54.346;18.562;2022-09-09T13:52:48;100344.70;;;12.30;100.00
57024;BME280;42916;54.346;18.562;2022-09-09T13:55:18;100336.98;;;12.28;100.00
57024;BME280;42916;54.346;18.562;2022-09-09T13:57:59;100342.55;;;12.28;100.00
57024;BME280;42916;54.346;18.562;2022-09-09T14:00:31;100338.73;;;12.26;100.00
57024;BME280;42916;54.346;18.562;2022-09-09T14:02:58;100336.93;;;12.24;100.00
57024;BME280;42916;54.346;18.562;2022-09-09T14:05:31;100331.04;;;12.24;100.00
57024;BME280;42916;54.346;18.562;2022-09-09T14:07:58;100327.88;;;12.26;100.00
57024;BME280;42916;54.346;18.562;2022-09-09T14:10:26;100327.61;;;12.30;100.00
57024;BME280;42916;54.346;18.562;2022-09-09T14:12:53;100327.79;;;12.33;100.00
57024;BME280;42916;54.346;18.562;2022-09-09T14:15:20;100328.84;;;12.37;100.00
57024;BME280;42916;54.346;18.562;2022-09-09T14:17:48;100325.56;;;12.40;100.00
57024;BME280;42916;54.346;18.562;2022-09-09T14:20:15;100325.23;;;12.42;100.00
57024;BME280;42916;54.346;18.562;2022-09-09T14:22:43;100322.59;;;12.45;100.00
57024;BME280;42916;54.346;18.562;2022-09-09T14:25:10;100325.68;;;12.45;100.00
57024;BME280;42916;54.346;18.562;2022-09-09T14:27:40;100330.81;;;12.46;100.00
57024;BME280;42916;54.346;18.562;2022-09-09T14:30:07;100327.88;;;12.47;100.00
57024;BME280;42916;54.346;18.562;2022-09-09T14:32:34;100329.23;;;12.48;100.00
57024;BME280;42916;54.346;18.562;2022-09-09T14:35:01;100328.27;;;12.51;100.00
57024;BME280;42916;54.346;18.562;2022-09-09T14:37:28;100330.02;;;12.53;100.00
57024;BME280;42916;54.346;18.562;2022-09-09T14:39:54;100328.00;;;12.51;100.00
57024;BME280;42916;54.346;18.562;2022-09-09T14:42:22;100333.61;;;12.50;100.00
57024;BME280;42916;54.346;18.562;2022-09-09T14:44:49;100336.45;;;12.48;100.00
57024;BME280;42916;54.346;18.562;2022-09-09T14:47:16;100340.86;;;12.46;100.00
57024;BME280;42916;54.346;18.562;2022-09-09T14:49:42;100343.74;;;12.45;100.00
57024;BME280;42916;54.346;18.562;2022-09-09T14:52:09;100345.16;;;12.43;100.00
57024;BME280;42916;54.346;18.562;2022-09-09T14:54:36;100348.44;;;12.41;100.00
57024;BME280;42916;54.346;18.562;2022-09-09T14:57:03;100348.87;;;12.40;100.00
57024;BME280;42916;54.346;18.562;2022-09-09T14:59:29;100349.90;;;12.40;100.00
57024;BME280;42916;54.346;18.562;2022-09-09T15:01:56;100348.63;;;12.37;100.00
57024;BME280;42916;54.346;18.562;2022-09-09T15:04:23;100347.77;;;12.36;100.00